Time;durP1;ratioP1;P1;durP2;ratioP2;P2;SDS_P1;SDS_P2;PMS_P1;PMS_P2;Temp;Humidity;BMP_temperature;BMP_pressure;BME280_temperature;BME280_humidity;BME280_pressure;Samples;Min_cycle;Max_cycle;Signal;HPM_P1;HPM_P2
2021/12/01 00:03:25;;;;;;;;;;;15.50;38.40;;;;;;8363146;28;20266;-48
2021/12/01 00:07:27;;;;;;;;;;;15.40;38.40;;;;;;8363350;28;21294;-49
2021/12/01 00:11:27;;;;;;;;;;;15.40;38.30;;;;;;8363476;28;20397;-48
2021/12/01 00:15:28;;;;;;;;;;;15.40;38.40;;;;;;8363009;28;19917;-52
2021/12/01 00:19:33;;;;;;;;;;;15.40;38.40;;;;;;8363255;28;19913;-49
2021/12/01 00:23:34;;;;;;;;;;;15.40;38.40;;;;;;8363317;28;19971;-48
2021/12/01 00:27:34;;;;;;;;;;;15.40;38.40;;;;;;8362989;28;19995;-48
2021/12/01 00:31:35;;;;;;;;;;;15.40;38.40;;;;;;8363104;28;19917;-49
2021/12/01 00:35:35;;;;;;;;;;;15.40;38.40;;;;;;8363121;28;19920;-49
2021/12/01 00:39:36;;;;;;;;;;;15.40;38.40;;;;;;8362700;28;19917;-48
2021/12/01 00:43:39;;;;;;;;;;;15.40;38.40;;;;;;8362903;28;20362;-50
2021/12/01 00:47:52;;;;;;;;;;;15.40;38.40;;;;;;8367776;28;19968;-49
2021/12/01 00:51:53;;;;;;;;;;;15.40;38.40;;;;;;8369848;28;20011;-51
2021/12/01 00:55:53;;;;;;;;;;;15.40;38.40;;;;;;8369304;28;19924;-49
2021/12/01 00:59:54;;;;;;;;;;;15.40;38.50;;;;;;8368723;28;19925;-49
2021/12/01 01:03:54;;;;;;;;;;;15.40;38.50;;;;;;8369174;28;19921;-49
2021/12/01 01:07:55;;;;;;;;;;;15.40;38.50;;;;;;8369276;28;19913;-50
2021/12/01 01:16:24;;;;;;;;;;;15.40;38.50;;;;;;8369306;28;19943;-49
2021/12/01 01:20:24;;;;;;;;;;;15.40;38.50;;;;;;8368823;28;19924;-49
2021/12/01 01:24:25;;;;;;;;;;;15.40;38.50;;;;;;8368043;28;20416;-49
2021/12/01 01:28:25;;;;;;;;;;;15.40;38.50;;;;;;8368620;28;19951;-48
2021/12/01 01:32:26;;;;;;;;;;;15.40;38.50;;;;;;8368663;28;20316;-50
2021/12/01 01:36:27;;;;;;;;;;;15.40;39.00;;;;;;8367665;28;19948;-48
2021/12/01 01:40:28;;;;;;;;;;;15.40;38.50;;;;;;8368178;28;19928;-49
2021/12/01 01:44:30;;;;;;;;;;;15.40;38.50;;;;;;8367928;28;19925;-50
2021/12/01 01:48:33;;;;;;;;;;;15.40;38.50;;;;;;8367585;28;19956;-49
2021/12/01 01:52:34;;;;;;;;;;;15.40;38.50;;;;;;8368079;28;20255;-48
2021/12/01 01:56:34;;;;;;;;;;;15.40;38.50;;;;;;8366807;28;19916;-50
2021/12/01 02:00:44;;;;;;;;;;;15.40;38.50;;;;;;8366825;28;19990;-49
2021/12/01 02:04:44;;;;;;;;;;;15.40;38.50;;;;;;8367698;28;20288;-48
2021/12/01 02:08:45;;;;;;;;;;;15.40;38.50;;;;;;8352807;28;20016;-51
2021/12/01 02:12:46;;;;;;;;;;;15.40;38.50;;;;;;8364798;28;19999;-49
2021/12/01 02:16:47;;;;;;;;;;;15.40;38.50;;;;;;8367052;28;20365;-52
2021/12/01 02:20:58;;;;;;;;;;;15.40;38.60;;;;;;8366539;28;20003;-52
2021/12/01 02:24:58;;;;;;;;;;;15.40;38.60;;;;;;8366757;28;19956;-48
2021/12/01 02:29:00;;;;;;;;;;;15.40;38.50;;;;;;8366725;28;19924;-48
2021/12/01 02:33:00;;;;;;;;;;;15.40;38.50;;;;;;8366122;28;20313;-49
2021/12/01 02:37:01;;;;;;;;;;;15.40;38.60;;;;;;8366581;28;19923;-51
2021/12/01 02:41:02;;;;;;;;;;;15.40;38.60;;;;;;8366326;28;19913;-49
2021/12/01 02:45:02;;;;;;;;;;;15.40;38.60;;;;;;8365617;28;19932;-50
2021/12/01 02:49:03;;;;;;;;;;;15.40;38.60;;;;;;8366528;28;19935;-49
2021/12/01 02:53:04;;;;;;;;;;;15.40;38.60;;;;;;8365813;28;19932;-49
2021/12/01 02:57:04;;;;;;;;;;;15.40;38.60;;;;;;8365481;28;20336;-49
2021/12/01 03:01:06;;;;;;;;;;;15.40;38.60;;;;;;8365873;28;20298;-50
2021/12/01 03:05:07;;;;;;;;;;;15.40;38.60;;;;;;8365591;28;19952;-49
2021/12/01 03:09:07;;;;;;;;;;;15.40;38.60;;;;;;8364840;28;19963;-50
2021/12/01 03:13:08;;;;;;;;;;;15.40;38.60;;;;;;8365496;28;20336;-49
2021/12/01 03:17:08;;;;;;;;;;;15.40;38.60;;;;;;8365063;28;20433;-50
2021/12/01 03:21:09;;;;;;;;;;;15.40;38.60;;;;;;8364399;28;20298;-48
2021/12/01 03:25:11;;;;;;;;;;;15.40;38.60;;;;;;8365005;28;19913;-48
2021/12/01 03:29:14;;;;;;;;;;;15.40;38.60;;;;;;8365420;28;19917;-50
2021/12/01 03:33:16;;;;;;;;;;;15.40;38.60;;;;;;8364067;28;20375;-49
2021/12/01 03:37:17;;;;;;;;;;;15.40;38.60;;;;;;8364439;28;19917;-49
2021/12/01 03:41:17;;;;;;;;;;;15.40;38.60;;;;;;8364461;28;19990;-48
2021/12/01 03:45:18;;;;;;;;;;;15.40;38.60;;;;;;8363933;28;19924;-48
2021/12/01 03:49:18;;;;;;;;;;;15.40;38.70;;;;;;8364634;28;19913;-47
2021/12/01 03:53:20;;;;;;;;;;;15.40;38.60;;;;;;8364066;28;19999;-48
2021/12/01 03:57:20;;;;;;;;;;;15.40;38.60;;;;;;8363561;28;19927;-48
2021/12/01 04:01:21;;;;;;;;;;;15.40;38.70;;;;;;8363473;28;19932;-49
2021/12/01 04:05:21;;;;;;;;;;;15.40;38.70;;;;;;8363685;28;19917;-49
2021/12/01 04:09:22;;;;;;;;;;;15.40;38.70;;;;;;8363127;28;19916;-49
2021/12/01 04:13:22;;;;;;;;;;;15.40;38.70;;;;;;8363048;28;19974;-49
2021/12/01 04:17:24;;;;;;;;;;;15.40;38.70;;;;;;8363146;28;19916;-49
2021/12/01 04:21:26;;;;;;;;;;;15.40;38.70;;;;;;8362021;28;19966;-49
2021/12/01 04:25:27;;;;;;;;;;;15.40;38.70;;;;;;8363340;28;19963;-48
2021/12/01 04:29:27;;;;;;;;;;;15.40;38.70;;;;;;8363437;28;20374;-49
2021/12/01 04:33:28;;;;;;;;;;;15.40;38.60;;;;;;8362600;28;20285;-49
2021/12/01 04:37:28;;;;;;;;;;;15.40;38.60;;;;;;8363200;28;19924;-49
2021/12/01 04:41:36;;;;;;;;;;;15.40;38.60;;;;;;8362877;28;19976;-48
2021/12/01 04:45:41;;;;;;;;;;;15.50;38.60;;;;;;8362997;28;19917;-48
2021/12/01 04:49:42;;;;;;;;;;;15.50;38.60;;;;;;8363353;28;19913;-48
2021/12/01 04:53:43;;;;;;;;;;;15.50;38.60;;;;;;8362522;28;20365;-49
2021/12/01 04:57:44;;;;;;;;;;;15.50;38.70;;;;;;8362647;28;20008;-49
2021/12/01 05:01:45;;;;;;;;;;;15.50;38.60;;;;;;8362870;28;20369;-48
2021/12/01 05:05:46;;;;;;;;;;;15.50;38.70;;;;;;8362194;28;20018;-49
2021/12/01 05:09:46;;;;;;;;;;;15.50;38.70;;;;;;8339526;28;19920;-48
2021/12/01 05:13:47;;;;;;;;;;;15.50;38.70;;;;;;8358324;28;19923;-48
2021/12/01 05:17:47;;;;;;;;;;;15.40;38.60;;;;;;8361968;28;19924;-48
2021/12/01 05:21:48;;;;;;;;;;;15.50;38.70;;;;;;8362516;28;19940;-48
2021/12/01 05:25:48;;;;;;;;;;;15.40;38.70;;;;;;8362276;28;19962;-48
2021/12/01 05:29:49;;;;;;;;;;;15.40;38.70;;;;;;8362227;28;19920;-48
2021/12/01 05:33:49;;;;;;;;;;;15.50;38.70;;;;;;8366649;28;19921;-48
2021/12/01 05:37:49;;;;;;;;;;;15.40;38.70;;;;;;8368146;28;19925;-48
2021/12/01 05:41:50;;;;;;;;;;;15.50;38.70;;;;;;8367879;28;19925;-48
2021/12/01 05:45:51;;;;;;;;;;;15.40;38.70;;;;;;8368330;28;19912;-48
2021/12/01 05:49:51;;;;;;;;;;;15.40;38.70;;;;;;8368218;28;19912;-49
2021/12/01 05:53:52;;;;;;;;;;;15.50;38.70;;;;;;8367326;28;19965;-47
2021/12/01 05:57:52;;;;;;;;;;;15.40;38.70;;;;;;8367945;28;19952;-48
2021/12/01 06:01:54;;;;;;;;;;;15.40;38.70;;;;;;8367683;28;19924;-49
2021/12/01 06:05:54;;;;;;;;;;;15.40;38.70;;;;;;8366980;28;19928;-48
2021/12/01 06:09:55;;;;;;;;;;;15.50;38.70;;;;;;8367499;28;20003;-48
2021/12/01 06:13:56;;;;;;;;;;;15.40;38.70;;;;;;8367241;28;19916;-52
2021/12/01 06:17:58;;;;;;;;;;;15.50;38.70;;;;;;8366530;28;20396;-50
2021/12/01 06:21:58;;;;;;;;;;;15.40;38.70;;;;;;8366990;28;19929;-49
2021/12/01 06:25:59;;;;;;;;;;;15.40;38.70;;;;;;8366992;28;19913;-52
2021/12/01 06:29:59;;;;;;;;;;;15.50;38.70;;;;;;8366389;28;19920;-49
2021/12/01 06:34:00;;;;;;;;;;;15.50;38.70;;;;;;8366472;28;19917;-49
2021/12/01 06:38:01;;;;;;;;;;;15.40;39.30;;;;;;8366557;28;19994;-48
2021/12/01 06:42:01;;;;;;;;;;;15.50;38.70;;;;;;8365710;28;20409;-49
2021/12/01 06:46:02;;;;;;;;;;;15.40;38.70;;;;;;8365685;28;20333;-48
2021/12/01 06:50:03;;;;;;;;;;;15.40;38.70;;;;;;8364987;28;19924;-49
2021/12/01 06:54:04;;;;;;;;;;;15.50;38.70;;;;;;8364179;28;19917;-48
2021/12/01 06:58:05;;;;;;;;;;;15.40;38.70;;;;;;8365105;28;19924;-49
2021/12/01 07:02:05;;;;;;;;;;;15.40;38.70;;;;;;8364487;28;20420;-48
2021/12/01 07:06:06;;;;;;;;;;;15.40;38.70;;;;;;8363666;28;19916;-48
2021/12/01 07:10:07;;;;;;;;;;;15.40;38.60;;;;;;8364233;28;19966;-48
2021/12/01 07:14:08;;;;;;;;;;;15.40;38.70;;;;;;8363978;28;19916;-48
2021/12/01 07:18:08;;;;;;;;;;;15.40;38.70;;;;;;8363782;28;19956;-47
2021/12/01 07:22:09;;;;;;;;;;;15.40;38.70;;;;;;8363962;28;19925;-48
2021/12/01 07:26:09;;;;;;;;;;;15.40;38.70;;;;;;8364073;28;19913;-52
2021/12/01 07:30:10;;;;;;;;;;;15.40;38.70;;;;;;8363217;28;19923;-49
2021/12/01 07:34:10;;;;;;;;;;;15.40;38.70;;;;;;8363513;28;19992;-47
2021/12/01 07:38:12;;;;;;;;;;;15.40;38.70;;;;;;8363441;28;19943;-48
2021/12/01 07:42:13;;;;;;;;;;;15.40;38.70;;;;;;8362796;28;19947;-50
2021/12/01 07:46:14;;;;;;;;;;;15.40;38.70;;;;;;8363248;28;20007;-48
2021/12/01 07:50:14;;;;;;;;;;;15.40;38.70;;;;;;8363109;28;19947;-48
2021/12/01 07:54:15;;;;;;;;;;;15.40;38.70;;;;;;8362169;28;19924;-48
2021/12/01 07:58:15;;;;;;;;;;;15.40;38.70;;;;;;8361905;28;19928;-48
2021/12/01 08:02:16;;;;;;;;;;;15.50;38.70;;;;;;8361729;28;19954;-49
2021/12/01 08:06:16;;;;;;;;;;;15.40;38.70;;;;;;8362305;28;19920;-49
2021/12/01 08:10:17;;;;;;;;;;;15.40;38.70;;;;;;8362588;28;20003;-48
2021/12/01 08:14:17;;;;;;;;;;;15.50;38.70;;;;;;8362455;28;19917;-50
2021/12/01 08:18:18;;;;;;;;;;;15.50;38.70;;;;;;8361830;28;19962;-49
2021/12/01 08:22:19;;;;;;;;;;;15.50;39.30;;;;;;8361972;28;20034;-48
2021/12/01 08:26:20;;;;;;;;;;;15.50;38.80;;;;;;8362222;28;20019;-48
2021/12/01 08:30:21;;;;;;;;;;;15.40;38.70;;;;;;8361469;28;20046;-48
2021/12/01 08:34:21;;;;;;;;;;;15.50;38.80;;;;;;8361892;28;19916;-48
2021/12/01 08:38:21;;;;;;;;;;;15.50;38.80;;;;;;8361751;28;19996;-48
2021/12/01 08:42:23;;;;;;;;;;;15.50;38.80;;;;;;8361289;28;19960;-48
2021/12/01 08:46:23;;;;;;;;;;;15.50;38.80;;;;;;8362025;28;20246;-49
2021/12/01 08:50:24;;;;;;;;;;;15.50;38.80;;;;;;8361837;28;19917;-48
2021/12/01 08:54:24;;;;;;;;;;;15.50;38.80;;;;;;8361081;28;19917;-48
2021/12/01 08:58:25;;;;;;;;;;;15.50;38.80;;;;;;8361488;28;20669;-48
2021/12/01 09:02:25;;;;;;;;;;;15.50;38.80;;;;;;8361467;28;19964;-48
2021/12/01 09:06:26;;;;;;;;;;;15.50;38.80;;;;;;8361939;28;20019;-49
2021/12/01 09:10:27;;;;;;;;;;;15.50;38.80;;;;;;8368015;28;20012;-49
2021/12/01 09:14:27;;;;;;;;;;;15.50;38.80;;;;;;8367559;28;19917;-49
2021/12/01 09:18:29;;;;;;;;;;;15.50;38.80;;;;;;8368300;28;19995;-48
2021/12/01 09:22:30;;;;;;;;;;;15.50;38.80;;;;;;8368981;28;20019;-48
2021/12/01 09:26:31;;;;;;;;;;;15.50;38.80;;;;;;8368709;28;19958;-48
2021/12/01 09:30:32;;;;;;;;;;;15.50;38.80;;;;;;8367880;28;19923;-48
2021/12/01 09:34:32;;;;;;;;;;;15.50;38.80;;;;;;8368345;28;20378;-49
2021/12/01 09:38:33;;;;;;;;;;;15.50;39.30;;;;;;8368318;28;19990;-49
2021/12/01 09:42:33;;;;;;;;;;;15.50;38.80;;;;;;8367600;28;19924;-51
2021/12/01 09:46:34;;;;;;;;;;;15.60;38.80;;;;;;8368154;28;19920;-48
2021/12/01 09:50:34;;;;;;;;;;;15.50;38.80;;;;;;8367771;28;19984;-50
2021/12/01 09:54:36;;;;;;;;;;;15.50;38.80;;;;;;8367230;28;20289;-50
2021/12/01 09:58:37;;;;;;;;;;;15.50;38.90;;;;;;8367877;28;19921;-51
2021/12/01 10:02:37;;;;;;;;;;;15.50;38.90;;;;;;8367400;28;19964;-50
2021/12/01 10:06:38;;;;;;;;;;;15.60;38.90;;;;;;8367000;28;19920;-48
2021/12/01 10:10:38;;;;;;;;;;;15.60;38.90;;;;;;8367399;28;19924;-48
2021/12/01 10:14:43;;;;;;;;;;;15.60;38.90;;;;;;8367143;28;19916;-48
2021/12/01 10:18:46;;;;;;;;;;;15.60;38.90;;;;;;8365789;28;20346;-48
2021/12/01 10:23:24;;;;;;;;;;;15.60;38.90;;;;;;8367240;28;19925;-49
2021/12/01 10:27:36;;;;;;;;;;;15.60;38.90;;;;;;8264597;28;19914;-48
2021/12/01 10:31:48;;;;;;;;;;;15.60;38.90;;;;;;8299794;28;20427;-48
2021/12/01 10:35:49;;;;;;;;;;;15.60;38.90;;;;;;8360955;28;19928;-49
2021/12/01 10:40:03;;;;;;;;;;;15.60;38.90;;;;;;8366294;28;19917;-52
2021/12/01 10:44:08;;;;;;;;;;;15.60;38.90;;;;;;8366228;28;19932;-50
2021/12/01 10:48:09;;;;;;;;;;;15.70;39.00;;;;;;8365589;28;19967;-49
2021/12/01 10:52:14;;;;;;;;;;;15.60;39.00;;;;;;8366193;28;19916;-50
2021/12/01 10:56:14;;;;;;;;;;;15.70;39.00;;;;;;8365964;28;19924;-49
2021/12/01 11:00:19;;;;;;;;;;;15.70;39.00;;;;;;8365155;28;19964;-48
2021/12/01 11:04:39;;;;;;;;;;;15.70;39.00;;;;;;8354256;28;20294;-49
2021/12/01 11:08:41;;;;;;;;;;;15.70;39.00;;;;;;8340504;28;19913;-49
2021/12/01 11:12:42;;;;;;;;;;;15.70;39.00;;;;;;8365453;28;19916;-49
2021/12/01 11:16:44;;;;;;;;;;;15.70;39.00;;;;;;8365425;28;19929;-48
2021/12/01 11:20:45;;;;;;;;;;;15.70;39.00;;;;;;8364636;28;19913;-48
2021/12/01 11:24:46;;;;;;;;;;;15.70;39.00;;;;;;8364764;28;19932;-48
2021/12/01 11:28:48;;;;;;;;;;;15.70;39.00;;;;;;8364715;28;19913;-48
2021/12/01 11:32:48;;;;;;;;;;;15.70;39.00;;;;;;8364126;28;20293;-49
2021/12/01 11:36:51;;;;;;;;;;;15.70;39.10;;;;;;8364551;28;19924;-49
2021/12/01 11:40:52;;;;;;;;;;;15.70;39.00;;;;;;8364351;28;19917;-48
2021/12/01 11:44:53;;;;;;;;;;;15.70;39.10;;;;;;8363716;28;19928;-49
2021/12/01 11:48:55;;;;;;;;;;;15.70;39.10;;;;;;8364712;28;20358;-49
2021/12/01 11:53:06;;;;;;;;;;;15.70;39.10;;;;;;8364058;28;19924;-49
2021/12/01 11:57:08;;;;;;;;;;;15.80;39.10;;;;;;8332292;28;20329;-48
2021/12/01 12:01:20;;;;;;;;;;;15.70;39.10;;;;;;8356456;28;19921;-48
2021/12/01 12:05:21;;;;;;;;;;;15.80;39.20;;;;;;8364525;28;20051;-48
2021/12/01 12:09:22;;;;;;;;;;;15.70;39.10;;;;;;8363121;28;19916;-48
2021/12/01 12:13:22;;;;;;;;;;;15.80;39.20;;;;;;8363537;28;20230;-48
2021/12/01 12:17:34;;;;;;;;;;;15.80;39.20;;;;;;8363642;28;19921;-49
2021/12/01 12:25:48;;;;;;;;;;;15.80;39.20;;;;;;8363477;28;20372;-48
2021/12/01 12:29:48;;;;;;;;;;;15.80;39.20;;;;;;8362744;28;19979;-48
2021/12/01 12:33:53;;;;;;;;;;;15.70;39.20;;;;;;8363193;28;19916;-50
2021/12/01 12:38:06;;;;;;;;;;;15.70;39.20;;;;;;8363286;28;19970;-48
2021/12/01 12:42:09;;;;;;;;;;;15.80;39.30;;;;;;8364593;28;20006;-49
2021/12/01 12:46:12;;;;;;;;;;;15.80;39.30;;;;;;8369921;28;19917;-49
2021/12/01 12:50:14;;;;;;;;;;;15.80;39.30;;;;;;8369807;28;19913;-48
2021/12/01 12:54:16;;;;;;;;;;;15.80;39.30;;;;;;8369352;28;19963;-48
2021/12/01 12:58:17;;;;;;;;;;;15.80;39.30;;;;;;8369942;28;19917;-48
2021/12/01 13:02:17;;;;;;;;;;;15.80;39.30;;;;;;8369623;28;19968;-48
2021/12/01 13:06:28;;;;;;;;;;;15.80;39.30;;;;;;8368825;28;19916;-50
2021/12/01 13:10:37;;;;;;;;;;;15.80;39.30;;;;;;8369376;28;19938;-51
2021/12/01 13:14:38;;;;;;;;;;;15.80;39.40;;;;;;8368813;28;20015;-49
2021/12/01 13:18:40;;;;;;;;;;;15.80;39.40;;;;;;8368341;28;19913;-49
2021/12/01 13:22:41;;;;;;;;;;;15.80;39.40;;;;;;8369059;28;19924;-49
2021/12/01 13:26:41;;;;;;;;;;;15.80;39.40;;;;;;8368195;28;19928;-50
2021/12/01 13:30:55;;;;;;;;;;;15.80;39.50;;;;;;8368711;28;19917;-50
2021/12/01 13:34:56;;;;;;;;;;;15.80;39.40;;;;;;8368475;28;19924;-48
2021/12/01 13:38:59;;;;;;;;;;;15.80;39.50;;;;;;8367641;28;19991;-48
2021/12/01 13:42:59;;;;;;;;;;;15.80;39.50;;;;;;8368611;28;19921;-49
2021/12/01 13:47:01;;;;;;;;;;;15.80;39.50;;;;;;8367915;28;19967;-48
2021/12/01 13:51:06;;;;;;;;;;;15.80;39.50;;;;;;8367343;28;19932;-52
2021/12/01 13:55:15;;;;;;;;;;;15.80;39.50;;;;;;8367630;28;20353;-49
2021/12/01 13:59:16;;;;;;;;;;;15.80;39.50;;;;;;8367954;28;20340;-48
2021/12/01 14:03:18;;;;;;;;;;;15.80;39.50;;;;;;8367199;28;19929;-49
2021/12/01 14:07:19;;;;;;;;;;;15.80;39.50;;;;;;8339916;28;19963;-51
2021/12/01 14:11:30;;;;;;;;;;;15.80;39.60;;;;;;8354396;28;19918;-51
2021/12/01 14:15:32;;;;;;;;;;;15.80;39.60;;;;;;8366502;28;19925;-52
2021/12/01 14:19:33;;;;;;;;;;;15.80;39.60;;;;;;8366817;28;20555;-49
2021/12/01 14:23:33;;;;;;;;;;;15.80;39.60;;;;;;8366518;28;20332;-48
2021/12/01 14:27:37;;;;;;;;;;;15.80;39.60;;;;;;8365526;28;19969;-49
2021/12/01 14:31:38;;;;;;;;;;;15.80;39.60;;;;;;8365993;28;20001;-48
2021/12/01 14:35:38;;;;;;;;;;;15.80;39.60;;;;;;8366599;28;19916;-50
2021/12/01 14:39:40;;;;;;;;;;;15.80;39.70;;;;;;8365158;28;19986;-50
2021/12/01 14:43:41;;;;;;;;;;;15.80;39.60;;;;;;8365961;28;20349;-50
2021/12/01 14:47:56;;;;;;;;;;;15.80;39.70;;;;;;8365148;28;19924;-49
2021/12/01 14:51:57;;;;;;;;;;;15.80;39.70;;;;;;8365461;28;19983;-49
2021/12/01 14:55:57;;;;;;;;;;;15.80;39.70;;;;;;8365329;28;19963;-48
2021/12/01 15:00:00;;;;;;;;;;;15.80;39.70;;;;;;8364905;28;20007;-48
2021/12/01 15:04:05;;;;;;;;;;;15.80;39.70;;;;;;8364676;28;19960;-50
2021/12/01 15:08:07;;;;;;;;;;;15.80;39.70;;;;;;8364972;28;19956;-48
2021/12/01 15:12:23;;;;;;;;;;;15.80;39.70;;;;;;8364096;28;19916;-49
2021/12/01 15:16:30;;;;;;;;;;;15.80;39.80;;;;;;8364515;28;19921;-49
2021/12/01 15:20:31;;;;;;;;;;;15.80;39.80;;;;;;8364798;28;19970;-51
2021/12/01 15:24:32;;;;;;;;;;;15.80;39.80;;;;;;8364371;28;19921;-49
2021/12/01 15:28:33;;;;;;;;;;;15.80;39.80;;;;;;8365016;28;19931;-51
2021/12/01 15:32:33;;;;;;;;;;;15.90;39.90;;;;;;8364536;28;19920;-51
2021/12/01 15:36:34;;;;;;;;;;;15.80;39.90;;;;;;8363732;28;19916;-48
2021/12/01 15:40:34;;;;;;;;;;;15.80;39.90;;;;;;8364087;28;19916;-49
2021/12/01 15:44:36;;;;;;;;;;;15.80;39.90;;;;;;8363671;28;19921;-49
2021/12/01 15:48:36;;;;;;;;;;;15.80;39.90;;;;;;8363550;28;19917;-49
2021/12/01 15:52:37;;;;;;;;;;;15.80;39.90;;;;;;8363904;28;19970;-48
2021/12/01 15:56:38;;;;;;;;;;;15.90;40.00;;;;;;8363862;28;19916;-49
2021/12/01 16:00:39;;;;;;;;;;;15.80;40.00;;;;;;8363334;28;19921;-50
2021/12/01 16:04:39;;;;;;;;;;;15.80;39.90;;;;;;8363849;28;19935;-52
2021/12/01 16:08:39;;;;;;;;;;;15.90;40.00;;;;;;8363573;28;19917;-50
2021/12/01 16:12:41;;;;;;;;;;;15.90;40.00;;;;;;8362873;28;19916;-50
2021/12/01 16:16:42;;;;;;;;;;;15.90;40.00;;;;;;8362746;28;20361;-52
2021/12/01 16:20:43;;;;;;;;;;;15.90;40.00;;;;;;8362831;28;19920;-52
2021/12/01 16:24:44;;;;;;;;;;;15.90;40.00;;;;;;8363058;28;19978;-49
2021/12/01 16:28:46;;;;;;;;;;;15.90;40.10;;;;;;8363169;28;19921;-48
2021/12/01 16:32:50;;;;;;;;;;;15.90;40.10;;;;;;8362493;28;19966;-52
2021/12/01 16:36:51;;;;;;;;;;;15.90;40.10;;;;;;8363067;28;20400;-51
2021/12/01 16:40:51;;;;;;;;;;;15.90;40.10;;;;;;8362923;28;19917;-51
2021/12/01 16:44:52;;;;;;;;;;;15.90;40.10;;;;;;8362428;28;19931;-50
2021/12/01 16:48:52;;;;;;;;;;;15.90;40.10;;;;;;8362875;28;19917;-49
2021/12/01 16:52:53;;;;;;;;;;;15.90;40.10;;;;;;8362884;28;20393;-49
2021/12/01 16:56:54;;;;;;;;;;;15.90;40.10;;;;;;8362296;28;19927;-49
2021/12/01 17:00:58;;;;;;;;;;;15.90;40.00;;;;;;8363059;28;19966;-52
2021/12/01 17:05:03;;;;;;;;;;;15.90;40.10;;;;;;8362717;28;19971;-48
2021/12/01 17:09:05;;;;;;;;;;;15.90;40.10;;;;;;8363748;28;19924;-50
2021/12/01 17:13:05;;;;;;;;;;;15.90;40.10;;;;;;8362479;28;19920;-49
2021/12/01 17:17:06;;;;;;;;;;;15.90;40.10;;;;;;8362598;28;20352;-52
2021/12/01 17:21:06;;;;;;;;;;;15.90;40.10;;;;;;8361699;28;19921;-51
2021/12/01 17:25:08;;;;;;;;;;;15.90;40.10;;;;;;8362428;28;20274;-49
2021/12/01 17:29:09;;;;;;;;;;;15.90;40.10;;;;;;8365860;28;19920;-49
2021/12/01 17:33:09;;;;;;;;;;;15.90;40.20;;;;;;8368100;28;19932;-50
2021/12/01 17:37:10;;;;;;;;;;;15.90;40.10;;;;;;8368591;28;19917;-50
2021/12/01 17:41:10;;;;;;;;;;;15.90;40.10;;;;;;8368224;28;19917;-52
2021/12/01 17:45:11;;;;;;;;;;;15.90;40.20;;;;;;8367856;28;19946;-51
2021/12/01 17:49:12;;;;;;;;;;;15.90;40.20;;;;;;8367913;28;20658;-51
2021/12/01 17:53:13;;;;;;;;;;;15.90;40.20;;;;;;8367655;28;20024;-51
2021/12/01 17:57:13;;;;;;;;;;;15.90;40.20;;;;;;8367138;28;20416;-48
2021/12/01 18:01:14;;;;;;;;;;;15.90;40.20;;;;;;8367932;28;19925;-49
2021/12/01 18:05:16;;;;;;;;;;;15.90;40.20;;;;;;8367350;28;19921;-50
2021/12/01 18:09:17;;;;;;;;;;;16.00;40.20;;;;;;8366610;28;19952;-49
2021/12/01 18:13:18;;;;;;;;;;;15.90;40.20;;;;;;8367380;28;19916;-52
2021/12/01 18:17:18;;;;;;;;;;;15.90;40.20;;;;;;8367050;28;20011;-50
2021/12/01 18:21:19;;;;;;;;;;;15.90;40.20;;;;;;8366353;28;19917;-50
2021/12/01 18:25:19;;;;;;;;;;;15.90;40.20;;;;;;8367139;28;20047;-51
2021/12/01 18:29:20;;;;;;;;;;;15.90;40.20;;;;;;8366539;28;19932;-52
2021/12/01 18:33:20;;;;;;;;;;;15.90;40.20;;;;;;8365900;28;20010;-52
2021/12/01 18:37:21;;;;;;;;;;;15.90;40.20;;;;;;8366500;28;20958;-50
2021/12/01 18:41:21;;;;;;;;;;;16.00;40.30;;;;;;8365393;28;19932;-51
2021/12/01 18:45:22;;;;;;;;;;;15.90;40.20;;;;;;8365867;28;19921;-49
2021/12/01 18:49:22;;;;;;;;;;;15.90;40.30;;;;;;8366023;28;19916;-49
2021/12/01 18:53:23;;;;;;;;;;;15.90;40.30;;;;;;8365982;28;19936;-52
2021/12/01 18:57:25;;;;;;;;;;;16.00;40.30;;;;;;8365377;28;20285;-51
2021/12/01 19:01:25;;;;;;;;;;;15.90;40.20;;;;;;8366107;28;20294;-49
2021/12/01 19:05:26;;;;;;;;;;;15.90;40.20;;;;;;8365873;28;19999;-48
2021/12/01 19:09:28;;;;;;;;;;;15.90;40.20;;;;;;8365166;28;19916;-48
2021/12/01 19:13:28;;;;;;;;;;;15.90;40.30;;;;;;8365381;28;20435;-48
2021/12/01 19:17:29;;;;;;;;;;;16.00;40.30;;;;;;8365144;28;19916;-49
2021/12/01 19:21:29;;;;;;;;;;;16.00;40.30;;;;;;8364458;28;19917;-51
2021/12/01 19:25:30;;;;;;;;;;;16.00;40.30;;;;;;8364682;28;19921;-50
2021/12/01 19:29:31;;;;;;;;;;;16.00;40.30;;;;;;8364819;28;20003;-51
2021/12/01 19:33:31;;;;;;;;;;;16.00;40.80;;;;;;8363974;28;19940;-49
2021/12/01 19:37:31;;;;;;;;;;;16.00;40.30;;;;;;8364753;28;20003;-51
2021/12/01 19:41:32;;;;;;;;;;;16.00;40.30;;;;;;8364435;28;20015;-49
2021/12/01 19:45:33;;;;;;;;;;;16.00;40.30;;;;;;8364338;28;19916;-49
2021/12/01 19:49:35;;;;;;;;;;;16.00;40.30;;;;;;8364684;28;19925;-50
2021/12/01 19:53:35;;;;;;;;;;;16.00;40.30;;;;;;8364053;28;19917;-49
2021/12/01 19:57:36;;;;;;;;;;;16.00;40.30;;;;;;8363707;28;20364;-48
2021/12/01 20:01:36;;;;;;;;;;;16.00;40.30;;;;;;8364219;28;19921;-49
2021/12/01 20:05:37;;;;;;;;;;;16.00;40.30;;;;;;8364088;28;20007;-51
2021/12/01 20:09:38;;;;;;;;;;;16.00;40.20;;;;;;8363483;28;19916;-50
2021/12/01 20:13:38;;;;;;;;;;;16.00;40.30;;;;;;8363019;28;19923;-50
2021/12/01 20:17:43;;;;;;;;;;;16.00;40.30;;;;;;8363760;28;19923;-49
2021/12/01 20:21:43;;;;;;;;;;;16.00;40.30;;;;;;8363112;28;20386;-51
2021/12/01 20:25:44;;;;;;;;;;;16.00;40.20;;;;;;8363652;28;19963;-50
2021/12/01 20:29:44;;;;;;;;;;;16.00;40.30;;;;;;8363009;28;19917;-48
2021/12/01 20:33:45;;;;;;;;;;;16.00;40.30;;;;;;8363463;28;19920;-48
2021/12/01 20:37:46;;;;;;;;;;;16.00;40.30;;;;;;8363250;28;19923;-47
2021/12/01 20:41:46;;;;;;;;;;;16.00;40.30;;;;;;8362828;28;20438;-49
2021/12/01 20:45:59;;;;;;;;;;;16.00;40.30;;;;;;8363485;28;19913;-50
2021/12/01 21:03:07;;;;;;;;;;;16.10;40.30;;;;;;8341732;28;20389;-48
2021/12/01 21:07:09;;;;;;;;;;;16.00;40.30;;;;;;8369645;28;20391;-47
2021/12/01 21:15:13;;;;;;;;;;;16.00;40.30;;;;;;8368865;28;19916;-50
2021/12/01 21:19:15;;;;;;;;;;;16.00;40.30;;;;;;8369072;28;20370;-51
2021/12/01 21:23:16;;;;;;;;;;;16.00;40.30;;;;;;8368985;28;19924;-47
2021/12/01 21:27:16;;;;;;;;;;;16.00;40.30;;;;;;8368477;28;19921;-48
2021/12/01 21:31:18;;;;;;;;;;;16.00;40.30;;;;;;8369049;28;19916;-47
2021/12/01 21:35:18;;;;;;;;;;;16.00;40.20;;;;;;8368514;28;19972;-48
2021/12/01 21:39:19;;;;;;;;;;;16.00;40.20;;;;;;8367934;28;20297;-47
2021/12/01 21:43:19;;;;;;;;;;;16.00;40.20;;;;;;8368145;28;19924;-47
2021/12/01 21:47:20;;;;;;;;;;;16.00;40.20;;;;;;8368330;28;19916;-48
2021/12/01 21:51:21;;;;;;;;;;;16.00;40.70;;;;;;8367775;28;20293;-48
2021/12/01 21:55:23;;;;;;;;;;;16.00;40.20;;;;;;8368001;28;19975;-49
2021/12/01 21:59:24;;;;;;;;;;;16.00;40.20;;;;;;8368101;28;20340;-47
2021/12/01 22:03:25;;;;;;;;;;;16.00;40.20;;;;;;8367176;28;20381;-47
2021/12/01 22:07:26;;;;;;;;;;;16.10;40.20;;;;;;8367747;28;19925;-48
2021/12/01 22:11:26;;;;;;;;;;;16.00;40.20;;;;;;8367696;28;20183;-48
2021/12/01 22:15:27;;;;;;;;;;;16.00;40.20;;;;;;8365666;28;19920;-48
2021/12/01 22:19:28;;;;;;;;;;;16.00;40.20;;;;;;8367112;28;19924;-49
2021/12/01 22:23:30;;;;;;;;;;;16.00;40.20;;;;;;8366982;28;19931;-48
2021/12/01 22:27:31;;;;;;;;;;;16.00;40.20;;;;;;8366586;28;19992;-49
2021/12/01 22:31:32;;;;;;;;;;;16.00;40.30;;;;;;8367129;28;19982;-48
2021/12/01 22:35:33;;;;;;;;;;;16.00;40.30;;;;;;8366829;28;19916;-49
2021/12/01 22:39:33;;;;;;;;;;;16.10;40.30;;;;;;8366275;28;19921;-50
2021/12/01 22:43:37;;;;;;;;;;;16.00;40.20;;;;;;8366390;28;19929;-50
2021/12/01 22:47:38;;;;;;;;;;;16.00;40.80;;;;;;8366377;28;19983;-50
2021/12/01 22:51:38;;;;;;;;;;;16.10;40.20;;;;;;8366013;28;19912;-51
2021/12/01 22:55:39;;;;;;;;;;;16.10;40.20;;;;;;8366083;28;20020;-50
2021/12/01 22:59:44;;;;;;;;;;;16.10;40.20;;;;;;8366293;28;19925;-47
2021/12/01 23:03:50;;;;;;;;;;;16.10;40.20;;;;;;8347702;28;20009;-51
2021/12/01 23:07:51;;;;;;;;;;;16.10;40.20;;;;;;8365938;28;19963;-49
2021/12/01 23:11:51;;;;;;;;;;;16.10;40.20;;;;;;8333474;28;19921;-51
2021/12/01 23:15:52;;;;;;;;;;;16.00;40.20;;;;;;8360009;28;19999;-49
2021/12/01 23:19:53;;;;;;;;;;;16.00;40.20;;;;;;8365279;28;19917;-49
2021/12/01 23:28:12;;;;;;;;;;;16.00;40.20;;;;;;8364786;28;19940;-50
2021/12/01 23:32:14;;;;;;;;;;;16.10;40.30;;;;;;8365163;28;19912;-49
2021/12/01 23:36:15;;;;;;;;;;;16.00;40.20;;;;;;8364378;28;20373;-48
2021/12/01 23:40:16;;;;;;;;;;;16.00;40.20;;;;;;8364511;28;19917;-49
2021/12/01 23:44:19;;;;;;;;;;;16.00;40.20;;;;;;8364416;28;20358;-49
2021/12/01 23:52:28;;;;;;;;;;;16.00;40.30;;;;;;8371018;28;19917;-48
2021/12/01 23:56:30;;;;;;;;;;;16.00;40.20;;;;;;8364131;28;19917;-48
